Archiv-/Tagesdaten

--Timestamp---	Temp	Chill	HIndex	Humid	Dewpt	Wind	HiWind	WindDir	Rain	Barom	Solar	ET	UV
--------------	----	-----	------	-----	-----	----	------	-------	----	-----	-----	--	--
20080310 00:05	1.7	1.7	1.7	81	-1.2	2	10	202	0.00	1006.302	0	0.000	0
20080310 00:10	1.7	1.7	1.7	81	-1.2	2	8	202	0.00	1006.336	0	0.000	0
20080310 00:15	1.7	1.7	1.7	81	-1.2	2	6	180	0.00	1006.336	0	0.000	0
20080310 00:20	1.7	1.7	1.7	81	-1.2	3	11	202	0.00	1006.438	0	0.000	0
20080310 00:25	1.7	1.7	1.7	81	-1.2	3	10	202	0.00	1006.438	0	0.000	0
20080310 00:30	1.7	1.7	1.7	81	-1.2	5	11	202	0.00	1006.505	0	0.000	0
20080310 00:35	1.7	1.7	1.7	81	-1.2	5	10	180	0.00	1006.539	0	0.000	0
20080310 00:40	1.7	1.7	1.7	81	-1.2	3	10	202	0.00	1006.607	0	0.000	0
20080310 00:45	1.7	1.7	1.7	81	-1.2	3	10	202	0.00	1006.573	0	0.000	0
20080310 00:50	1.7	1.7	1.7	81	-1.2	3	11	202	0.00	1006.505	0	0.000	0
20080310 00:55	1.8	1.8	1.8	80	-1.3	5	11	180	0.00	1006.505	0	0.000	0
20080310 01:00	1.8	1.8	1.8	80	-1.3	3	10	202	0.00	1006.539	0	0.020	0
20080310 01:05	1.8	1.8	1.8	80	-1.3	5	10	202	0.00	1006.336	0	0.000	0
20080310 01:10	1.8	1.8	1.8	80	-1.3	3	10	202	0.00	1006.302	0	0.000	0
20080310 01:15	1.7	1.7	1.7	80	-1.4	3	11	202	0.00	1006.336	0	0.000	0
20080310 01:20	1.7	1.7	1.7	80	-1.4	2	6	180	0.00	1006.234	0	0.000	0
20080310 01:25	1.7	1.7	1.7	80	-1.4	3	11	202	0.00	1006.268	0	0.000	0
20080310 01:30	1.8	1.8	1.8	80	-1.3	5	14	202	0.00	1006.336	0	0.000	0
20080310 01:35	1.8	1.8	1.8	80	-1.2	3	13	180	0.00	1006.336	0	0.000	0
20080310 01:40	1.9	1.9	1.9	80	-1.1	3	8	202	0.00	1006.370	0	0.000	0
20080310 01:45	2.0	2.0	2.0	80	-1.1	5	10	202	0.00	1006.370	0	0.000	0
20080310 01:50	2.1	2.1	2.1	80	-1.0	5	11	180	0.00	1006.404	0	0.000	0
20080310 01:55	2.1	2.1	2.1	80	-1.0	3	10	202	0.00	1006.404	0	0.000	0
20080310 02:00	2.2	2.2	2.2	80	-0.9	3	10	202	0.00	1006.438	0	0.020	0
20080310 02:05	2.2	2.2	2.2	80	-0.9	2	11	180	0.00	1006.234	0	0.000	0
20080310 02:10	2.2	2.2	2.2	80	-0.9	3	10	180	0.00	1006.201	0	0.000	0
20080310 02:15	2.2	2.2	2.2	80	-0.9	3	8	202	0.00	1006.065	0	0.000	0
20080310 02:20	2.2	2.2	2.2	80	-0.9	3	8	180	0.00	1005.997	0	0.000	0
20080310 02:25	2.3	2.3	2.3	80	-0.8	3	8	202	0.00	1005.930	0	0.000	0
20080310 02:30	2.3	2.3	2.3	79	-1.0	2	6	202	0.00	1005.896	0	0.000	0
20080310 02:35	2.3	2.3	2.3	79	-1.0	2	5	180	0.00	1005.862	0	0.000	0
20080310 02:40	2.3	2.3	2.3	79	-1.0	2	6	180	0.00	1005.828	0	0.000	0
20080310 02:45	2.3	2.3	2.3	79	-1.0	0	3	180	0.00	1005.828	0	0.000	0
20080310 02:50	2.3	2.3	2.3	79	-1.0	2	5	180	0.00	1005.862	0	0.000	0
20080310 02:55	2.2	2.2	2.2	79	-1.0	0	6	180	0.00	1005.828	0	0.000	0
20080310 03:00	2.2	2.2	2.2	79	-1.0	2	6	180	0.00	1005.693	0	0.000	0
20080310 03:05	2.1	2.1	2.1	79	-1.1	0	2	180	0.00	1005.625	0	0.000	0
20080310 03:10	1.9	1.9	1.9	80	-1.1	0	2	180	0.00	1005.625	0	0.000	0
20080310 03:15	1.8	1.8	1.8	80	-1.3	0	2	180	0.00	1005.693	0	0.000	0
20080310 03:20	1.7	1.7	1.7	80	-1.4	0	2	180	0.00	1005.625	0	0.000	0
20080310 03:25	1.6	1.6	1.6	80	-1.5	0	2	180	0.00	1005.523	0	0.000	0
20080310 03:30	1.6	1.6	1.6	81	-1.3	0	2	180	0.00	1005.523	0	0.000	0
20080310 03:35	1.4	1.4	1.4	81	-1.5	0	2	180	0.00	1005.523	0	0.000	0
20080310 03:40	1.3	1.3	1.3	81	-1.6	0	2	180	0.00	1005.422	0	0.000	0
20080310 03:45	1.3	1.3	1.3	82	-1.4	0	5	180	0.00	1005.422	0	0.000	0
20080310 03:50	1.3	1.3	1.3	81	-1.6	2	5	180	0.00	1005.388	0	0.000	0
20080310 03:55	1.2	1.2	1.2	81	-1.7	2	5	180	0.00	1005.286	0	0.000	0
20080310 04:00	1.1	1.1	1.1	82	-1.7	2	3	180	0.00	1005.151	0	0.000	0
20080310 04:05	1.0	1.0	1.0	82	-1.7	2	6	180	0.00	1005.117	0	0.000	0
20080310 04:10	1.0	1.0	1.0	82	-1.7	2	5	157	0.00	1005.083	0	0.000	0
20080310 04:15	0.9	0.9	0.9	82	-1.8	0	3	180	0.00	1004.981	0	0.000	0
20080310 04:20	1.0	1.0	1.0	82	-1.7	2	5	157	0.00	1004.948	0	0.000	0
20080310 04:25	1.0	1.0	1.0	82	-1.7	0	3	180	0.00	1004.812	0	0.000	0
20080310 04:30	1.0	1.0	1.0	82	-1.7	2	5	180	0.00	1004.778	0	0.000	0
20080310 04:35	0.9	0.9	0.9	82	-1.8	0	3	180	0.00	1004.711	0	0.000	0
20080310 04:40	0.9	0.9	0.9	82	-1.8	0	3	157	0.00	1004.744	0	0.000	0
20080310 04:45	0.9	0.9	0.9	82	-1.8	2	6	180	0.00	1004.643	0	0.000	0
20080310 04:50	0.9	0.9	0.9	82	-1.8	0	2	180	0.00	1004.473	0	0.000	0
20080310 04:55	1.0	1.0	1.0	82	-1.7	0	3	180	0.00	1004.473	0	0.000	0
20080310 05:00	1.1	1.1	1.1	82	-1.7	2	6	180	0.00	1004.507	0	0.000	0
20080310 05:05	1.1	1.1	1.1	81	-1.8	0	5	157	0.00	1004.609	0	0.000	0
20080310 05:10	1.2	1.2	1.2	81	-1.7	2	5	180	0.00	1004.575	0	0.000	0
20080310 05:15	1.3	1.3	1.3	81	-1.6	0	2	180	0.00	1004.575	0	0.000	0
20080310 05:20	1.3	1.3	1.3	80	-1.7	0	5	180	0.00	1004.507	0	0.000	0
20080310 05:25	1.3	1.3	1.3	80	-1.7	0	2	180	0.00	1004.440	0	0.000	0
20080310 05:30	1.3	1.3	1.3	80	-1.7	0	5	180	0.00	1004.440	0	0.000	0
20080310 05:35	1.3	1.3	1.3	80	-1.7	0	2	180	0.00	1004.304	0	0.000	0
20080310 05:40	1.3	1.3	1.3	80	-1.7	0	2	180	0.00	1004.304	0	0.000	0
20080310 05:45	1.3	1.3	1.3	80	-1.7	0	3	180	0.00	1004.236	0	0.000	0
20080310 05:50	1.4	1.4	1.4	80	-1.7	2	5	157	0.00	1004.169	0	0.000	0
20080310 05:55	1.4	1.4	1.4	80	-1.7	0	3	157	0.00	1004.135	0	0.000	0
20080310 06:00	1.4	1.4	1.4	80	-1.7	0	5	157	0.00	1004.101	0	0.000	0
20080310 06:05	1.3	1.3	1.3	80	-1.7	2	5	157	0.00	1004.236	0	0.000	0
20080310 06:10	1.3	1.3	1.3	80	-1.7	0	3	157	0.00	1004.169	0	0.000	0
20080310 06:15	1.2	1.2	1.2	81	-1.7	0	5	157	0.00	1004.135	0	0.000	0
20080310 06:20	1.1	1.1	1.1	81	-1.8	2	3	157	0.00	1004.033	0	0.000	0
20080310 06:25	1.1	1.1	1.1	82	-1.7	2	5	157	0.00	1003.965	0	0.000	0
20080310 06:30	1.1	1.1	1.1	82	-1.7	0	5	157	0.00	1003.864	0	0.000	0
20080310 06:35	1.1	1.1	1.1	82	-1.7	0	3	157	0.00	1003.864	0	0.000	0
20080310 06:40	1.1	1.1	1.1	82	-1.7	0	3	157	0.00	1003.762	4	0.000	0
20080310 06:45	1.2	1.2	1.2	81	-1.7	2	5	180	0.00	1003.762	9	0.000	0
20080310 06:50	1.3	1.3	1.3	81	-1.6	0	3	180	0.00	1003.796	14	0.000	0
20080310 06:55	1.4	1.4	1.4	80	-1.6	0	3	180	0.00	1003.796	18	0.000	0
20080310 07:00	1.6	1.6	1.6	80	-1.5	0	3	180	0.00	1003.796	22	0.000	0
20080310 07:05	1.8	1.8	1.8	79	-1.5	0	3	180	0.00	1003.932	25	0.000	0
20080310 07:10	1.8	1.8	1.8	79	-1.4	0	3	180	0.00	1003.898	29	0.000	0
20080310 07:15	1.8	1.8	1.8	79	-1.4	0	2	180	0.00	1003.830	33	0.000	0
20080310 07:20	1.8	1.8	1.8	79	-1.4	0	3	180	0.00	1003.796	39	0.000	0
20080310 07:25	1.9	1.9	1.9	79	-1.3	0	3	180	0.00	1003.796	45	0.000	0
20080310 07:30	2.1	2.1	2.1	79	-1.2	0	3	180	0.00	1003.898	51	0.000	0
20080310 07:35	2.2	2.2	2.2	79	-1.1	0	2	180	0.00	1003.796	51	0.000	0
20080310 07:40	2.3	2.3	2.3	78	-1.2	0	2	180	0.00	1003.762	52	0.000	0
20080310 07:45	2.4	2.4	2.4	78	-1.1	0	2	180	0.00	1003.796	53	0.000	0
20080310 07:50	2.4	2.4	2.4	78	-1.0	0	3	180	0.00	1003.864	54	0.000	0
20080310 07:55	2.4	2.4	2.4	79	-0.9	0	0	180	0.00	1003.898	56	0.000	0
20080310 08:00	2.3	2.3	2.3	78	-1.1	0	3	180	0.00	1003.932	55	0.020	0
20080310 08:05	2.4	2.4	2.4	78	-1.0	0	2	180	0.00	1003.864	55	0.000	0
20080310 08:10	2.4	2.4	2.4	79	-0.8	0	3	180	0.00	1003.762	55	0.000	0
20080310 08:15	2.5	2.5	2.5	79	-0.8	0	2	180	0.00	1003.695	58	0.000	0
20080310 08:20	2.6	2.6	2.6	79	-0.7	0	3	180	0.00	1003.728	61	0.000	0
20080310 08:25	2.7	2.7	2.7	79	-0.6	0	3	180	0.00	1003.695	59	0.000	0
20080310 08:30	2.9	2.9	2.9	79	-0.4	2	5	135	0.00	1003.627	52	0.000	0
20080310 08:35	3.1	3.1	3.1	78	-0.4	2	5	135	0.00	1003.424	47	0.000	0
20080310 08:40	3.2	3.2	3.2	78	-0.2	2	5	135	0.00	1003.390	47	0.000	0
20080310 08:45	3.4	3.4	3.4	78	-0.0	0	3	135	0.00	1003.390	45	0.000	0
20080310 08:50	3.6	3.6	3.6	77	-0.0	2	6	135	0.00	1003.424	42	0.000	0
20080310 08:55	3.8	3.8	3.8	76	-0.0	2	5	157	0.00	1003.390	46	0.000	0
20080310 09:00	4.1	4.1	4.1	75	0.1	3	8	157	0.00	1003.254	45	0.020	0
20080310 09:05	4.3	4.3	4.3	75	0.3	3	8	135	0.00	1003.322	46	0.000	0
20080310 09:10	4.6	4.6	4.6	74	0.3	2	5	157	0.00	1003.254	46	0.000	0
20080310 09:15	4.8	4.8	4.8	74	0.5	0	2	157	0.00	1003.085	47	0.000	0
20080310 09:20	4.9	4.9	4.9	73	0.5	0	2	157	0.00	1003.017	47	0.000	0
20080310 09:25	5.2	5.2	5.2	72	0.5	5	8	157	0.00	1002.916	47	0.000	0
20080310 09:30	5.7	4.4	5.7	71	0.8	6	11	112	0.00	1002.713	46	0.000	0
20080310 09:35	6.1	4.8	6.1	69	0.8	6	11	112	0.00	1002.475	46	0.000	0
20080310 09:40	6.3	6.3	6.3	69	1.1	3	11	157	0.00	1002.475	46	0.000	0
20080310 09:45	6.6	6.6	6.6	68	1.1	2	5	157	0.00	1002.408	47	0.000	0
20080310 09:50	6.8	6.8	6.8	68	1.3	3	10	135	0.00	1002.306	47	0.000	0
20080310 09:55	7.2	7.2	7.2	66	1.2	3	8	112	0.00	1002.137	49	0.000	0
20080310 10:00	7.4	7.4	7.4	66	1.5	3	8	135	0.00	1002.103	49	0.020	0
20080310 10:05	7.7	7.7	7.7	67	1.9	3	6	135	0.00	1001.934	51	0.000	0
20080310 10:10	8.0	8.0	8.0	63	1.4	3	10	135	0.00	1001.934	51	0.000	0
20080310 10:15	8.3	8.3	8.3	62	1.4	5	10	112	0.00	1001.900	51	0.000	0
20080310 10:20	8.4	8.4	8.4	62	1.5	5	11	112	0.00	1001.798	53	0.000	0
20080310 10:25	8.5	8.5	8.5	61	1.4	3	14	135	0.00	1001.764	54	0.000	0
20080310 10:30	8.7	8.7	8.7	61	1.6	5	13	90	0.00	1001.460	54	0.000	0
20080310 10:35	8.8	8.8	8.8	62	2.0	3	11	135	0.00	1001.222	56	0.000	1
20080310 10:40	9.1	7.6	9.1	60	1.7	10	18	112	0.00	1001.019	207	0.000	1
20080310 10:45	9.2	8.1	9.2	59	1.6	8	16	112	0.00	1000.748	501	0.000	2
20080310 10:50	9.5	8.4	9.5	58	1.6	8	16	112	0.00	1000.613	508	0.000	2
20080310 10:55	9.8	8.8	9.8	56	1.5	8	16	112	0.00	1000.477	513	0.000	2
20080310 11:00	10.0	10.0	10.0	55	1.4	6	21	112	0.00	1000.342	518	0.100	2
20080310 11:05	10.2	10.2	10.2	53	1.0	10	23	112	0.00	1000.376	525	0.000	2
20080310 11:10	10.2	10.2	10.2	53	1.0	13	23	112	0.00	1000.240	531	0.000	2
20080310 11:15	10.2	10.2	10.2	54	1.3	11	23	112	0.00	999.969	537	0.000	2
20080310 11:20	10.3	10.3	10.3	56	1.9	8	19	112	0.00	999.732	546	0.000	2
20080310 11:25	10.6	10.6	10.6	56	2.1	8	18	135	0.00	999.394	548	0.000	2
20080310 11:30	10.8	10.8	10.8	56	2.4	10	19	112	0.00	999.191	550	0.000	3
20080310 11:35	10.8	10.8	10.8	54	1.8	10	24	112	0.00	999.055	555	0.000	3
20080310 11:40	10.7	10.7	10.7	54	1.8	13	29	112	0.00	998.784	561	0.000	3
20080310 11:45	10.7	10.7	10.7	54	1.8	11	23	112	0.00	998.649	566	0.000	3
20080310 11:50	10.8	10.8	10.8	54	1.8	11	26	112	0.00	998.378	570	0.000	3
20080310 11:55	10.9	10.9	10.9	54	1.9	10	21	112	0.00	998.242	574	0.000	3
20080310 12:00	10.9	10.9	10.9	53	1.7	14	27	112	0.00	998.107	575	0.240	3
20080310 12:05	10.9	10.9	10.9	53	1.7	13	26	112	0.00	997.938	574	0.000	3
20080310 12:10	11.1	11.1	11.1	53	1.8	13	24	112	0.00	997.768	578	0.000	3
20080310 12:15	11.3	11.3	11.3	53	2.0	10	24	112	0.00	997.599	580	0.000	3
20080310 12:20	11.4	11.4	11.4	54	2.5	11	23	112	0.00	997.328	580	0.000	3
20080310 12:25	11.7	11.7	11.7	53	2.4	11	21	112	0.00	996.990	580	0.000	3
20080310 12:30	11.6	11.6	11.6	49	1.3	14	27	112	0.00	996.990	583	0.000	3
20080310 12:35	11.8	11.8	11.8	53	2.6	11	23	112	0.00	996.820	581	0.000	3
20080310 12:40	12.0	12.0	12.0	47	1.0	13	26	112	0.00	996.719	583	0.000	3
20080310 12:45	12.2	12.2	12.2	46	0.9	10	23	112	0.00	996.583	578	0.000	3
20080310 12:50	12.3	12.3	12.3	47	1.3	11	23	112	0.00	996.482	579	0.000	3
20080310 12:55	12.3	12.3	12.3	48	1.6	11	23	112	0.00	996.380	575	0.000	3
20080310 13:00	12.5	12.5	12.5	50	2.4	10	24	112	0.00	996.109	573	0.280	3
20080310 13:05	12.6	12.6	12.6	49	2.2	10	26	112	0.00	995.906	566	0.000	3
20080310 13:10	12.6	12.6	12.6	49	2.2	13	24	112	0.00	995.838	565	0.000	3
20080310 13:15	12.8	12.8	12.8	51	2.9	8	19	112	0.00	995.770	566	0.000	3
20080310 13:20	13.0	13.0	13.0	49	2.5	10	19	112	0.00	995.669	558	0.000	2
20080310 13:25	13.2	13.2	13.2	50	3.0	8	21	112	0.00	995.330	555	0.000	2
20080310 13:30	13.3	13.3	13.3	50	3.1	10	18	112	0.00	995.195	548	0.000	2
20080310 13:35	13.4	13.4	13.4	50	3.2	11	23	112	0.00	994.992	547	0.000	2
20080310 13:40	13.7	13.7	13.7	47	2.6	11	26	112	0.00	994.754	548	0.000	2
20080310 13:45	13.6	13.6	13.6	46	2.2	13	23	112	0.00	994.788	539	0.000	2
20080310 13:50	13.7	13.7	13.7	46	2.3	11	23	112	0.00	994.721	531	0.000	2
20080310 13:55	13.8	13.8	13.8	47	2.7	11	23	112	0.00	994.687	528	0.000	2
20080310 14:00	13.8	13.8	13.8	43	1.5	11	19	112	0.00	994.551	522	0.260	2
20080310 14:05	14.0	14.0	14.0	44	1.9	10	18	112	0.00	994.450	516	0.000	2
20080310 14:10	14.2	14.2	14.2	42	1.4	11	24	112	0.00	994.314	508	0.000	2
20080310 14:15	14.4	14.4	14.4	42	1.7	10	21	112	0.00	994.043	500	0.000	2
20080310 14:20	14.5	14.5	14.5	42	1.7	8	19	112	0.00	993.874	492	0.000	2
20080310 14:25	14.6	14.6	14.6	41	1.5	11	23	112	0.00	993.874	484	0.000	2
20080310 14:30	14.6	14.6	14.6	41	1.5	10	23	112	0.00	993.705	478	0.000	2
20080310 14:35	14.7	14.7	14.7	40	1.3	10	23	112	0.00	993.603	471	0.000	2
20080310 14:40	14.9	14.9	14.9	38	0.7	11	26	112	0.00	993.501	464	0.000	2
20080310 14:45	15.0	15.0	15.0	38	0.8	8	19	112	0.00	993.332	379	0.000	2
20080310 14:50	15.0	15.0	15.0	38	0.8	6	18	112	0.00	993.231	351	0.000	1
20080310 14:55	15.2	15.2	15.2	37	0.6	8	18	112	0.00	993.129	291	0.000	1
20080310 15:00	15.2	15.2	15.2	38	0.9	11	23	112	0.00	992.994	244	0.240	1
20080310 15:05	15.2	15.2	15.2	36	0.2	10	21	112	0.00	992.994	219	0.000	1
20080310 15:10	15.4	15.4	15.4	36	0.4	6	16	135	0.00	992.790	206	0.000	1
20080310 15:15	15.5	15.5	15.5	37	0.9	5	14	112	0.00	992.621	177	0.000	1
20080310 15:20	15.5	15.5	15.5	35	0.1	10	31	112	0.00	992.553	169	0.000	1
20080310 15:25	15.6	15.6	15.6	34	-0.2	6	18	112	0.00	992.384	151	0.000	1
20080310 15:30	15.7	15.7	15.7	35	0.2	6	16	112	0.00	992.215	123	0.000	1
20080310 15:35	15.6	15.6	15.6	34	-0.2	11	21	112	0.00	992.181	100	0.000	1
20080310 15:40	15.6	15.6	15.6	33	-0.7	10	23	112	0.00	991.978	72	0.000	1
20080310 15:45	15.6	15.6	15.6	33	-0.6	8	19	135	0.00	991.842	146	0.000	1
20080310 15:50	15.6	15.6	15.6	34	-0.2	10	19	112	0.00	991.741	92	0.000	1
20080310 15:55	15.7	15.7	15.7	31	-1.4	11	24	112	0.00	991.537	96	0.000	1
20080310 16:00	15.7	15.7	15.7	29	-2.3	8	18	112	0.00	991.436	62	0.120	0
20080310 16:05	15.7	15.7	15.7	29	-2.3	6	19	135	0.00	991.300	64	0.000	0
20080310 16:10	15.7	15.7	15.7	30	-1.8	6	21	112	0.00	991.233	95	0.000	0
20080310 16:15	15.8	15.8	15.8	29	-2.2	5	16	157	0.00	991.063	72	0.000	0
20080310 16:20	15.8	15.8	15.8	29	-2.2	5	14	135	0.00	990.996	71	0.000	0
20080310 16:25	15.9	15.9	15.9	28	-2.6	5	16	135	0.00	990.894	76	0.000	0
20080310 16:30	16.0	16.0	16.0	27	-3.0	3	21	157	0.00	990.826	65	0.000	0
20080310 16:35	15.8	15.8	15.8	27	-3.1	6	14	157	0.00	990.725	46	0.000	0
20080310 16:40	15.7	15.7	15.7	28	-2.7	5	16	180	0.00	990.725	61	0.000	0
20080310 16:45	15.6	15.6	15.6	27	-3.4	8	27	180	0.00	990.623	55	0.000	0
20080310 16:50	15.2	15.2	15.2	27	-3.7	8	19	180	0.00	990.589	38	0.000	0
20080310 16:55	15.0	15.0	15.0	28	-3.4	5	18	157	0.00	990.657	39	0.000	0
20080310 17:00	14.9	14.9	14.9	28	-3.5	6	21	180	0.00	990.521	43	0.080	0
20080310 17:05	14.7	14.7	14.7	28	-3.6	6	18	157	0.00	990.386	48	0.000	0
20080310 17:10	14.6	14.6	14.6	29	-3.3	5	14	180	0.00	990.454	52	0.000	0
20080310 17:15	14.4	14.4	14.4	29	-3.4	5	14	157	0.00	990.386	54	0.000	0
20080310 17:20	14.3	14.3	14.3	30	-3.1	5	18	180	0.00	990.318	57	0.000	0
20080310 17:25	14.3	14.3	14.3	30	-3.1	5	13	180	0.00	990.284	57	0.000	0
20080310 17:30	14.2	14.2	14.2	30	-3.1	3	11	157	0.00	990.183	49	0.000	0
20080310 17:35	14.1	14.1	14.1	32	-2.3	3	10	157	0.00	990.183	42	0.000	0
20080310 17:40	13.9	13.9	13.9	33	-2.1	3	10	157	0.00	990.183	36	0.000	0
20080310 17:45	13.7	13.7	13.7	33	-2.3	3	10	157	0.00	990.149	28	0.000	0
20080310 17:50	13.5	13.5	13.5	33	-2.5	3	11	157	0.00	990.217	20	0.000	0
20080310 17:55	13.3	13.3	13.3	34	-2.2	3	10	157	0.00	990.251	15	0.000	0
20080310 18:00	13.2	13.2	13.2	34	-2.3	3	11	157	0.00	990.251	8	0.060	0
20080310 18:05	12.9	12.9	12.9	35	-2.2	3	10	157	0.00	990.183	3	0.000	0
20080310 18:10	12.8	12.8	12.8	35	-2.3	3	10	157	0.00	990.149	0	0.000	0
20080310 18:15	12.6	12.6	12.6	35	-2.4	5	11	157	0.00	990.149	0	0.000	0
20080310 18:20	12.4	12.4	12.4	35	-2.6	3	10	157	0.00	990.081	0	0.000	0
20080310 18:25	12.3	12.3	12.3	36	-2.4	2	10	157	0.00	990.183	0	0.000	0
20080310 18:30	12.0	12.0	12.0	37	-2.2	3	8	157	0.00	990.251	0	0.000	0
20080310 18:35	11.8	11.8	11.8	37	-2.4	3	18	157	0.00	990.149	0	0.000	0
20080310 18:40	11.7	11.7	11.7	37	-2.5	3	8	157	0.00	990.251	0	0.000	0
20080310 18:45	11.6	11.6	11.6	37	-2.6	3	8	180	0.00	990.318	0	0.000	0
20080310 18:50	11.5	11.5	11.5	38	-2.3	3	11	157	0.00	990.318	0	0.000	0
20080310 18:55	11.4	11.4	11.4	37	-2.7	3	10	180	0.00	990.284	0	0.000	0
20080310 19:00	11.3	11.3	11.3	37	-2.8	3	10	157	0.00	990.420	0	0.020	0
20080310 19:05	11.3	11.3	11.3	38	-2.5	3	10	157	0.00	990.318	0	0.000	0
20080310 19:10	11.2	11.2	11.2	38	-2.6	2	10	157	0.00	990.352	0	0.000	0
20080310 19:15	11.1	11.1	11.1	38	-2.7	3	10	157	0.00	990.318	0	0.000	0
20080310 19:20	11.1	11.1	11.1	38	-2.7	3	8	157	0.00	990.318	0	0.000	0
20080310 19:25	11.0	11.0	11.0	39	-2.4	3	10	180	0.00	990.352	0	0.000	0
20080310 19:30	11.0	11.0	11.0	38	-2.8	3	8	180	0.00	990.386	0	0.000	0
20080310 19:35	10.9	10.9	10.9	39	-2.5	3	10	157	0.00	990.386	0	0.000	0
20080310 19:40	10.9	10.9	10.9	39	-2.5	3	11	157	0.00	990.420	0	0.000	0
20080310 19:45	10.9	10.9	10.9	38	-2.8	5	11	180	0.00	990.488	0	0.000	0
20080310 19:50	10.9	10.9	10.9	39	-2.5	3	8	157	0.00	990.454	0	0.000	0
20080310 19:55	10.9	10.9	10.9	39	-2.5	3	10	157	0.00	990.521	0	0.000	0
20080310 20:00	10.9	10.9	10.9	39	-2.5	5	11	180	0.00	990.521	0	0.040	0
20080310 20:05	10.8	10.8	10.8	39	-2.6	5	10	157	0.00	990.521	0	0.000	0
20080310 20:10	10.8	10.8	10.8	39	-2.6	3	8	180	0.00	990.521	0	0.000	0
20080310 20:15	10.7	10.7	10.7	39	-2.7	3	14	157	0.00	990.488	0	0.000	0
20080310 20:20	10.7	10.7	10.7	39	-2.7	3	6	180	0.00	990.555	0	0.000	0
20080310 20:25	10.7	10.7	10.7	40	-2.4	3	8	180	0.00	990.589	0	0.000	0
20080310 20:30	10.7	10.7	10.7	40	-2.4	2	10	180	0.00	990.623	0	0.000	0
20080310 20:35	10.6	10.6	10.6	40	-2.4	3	16	180	0.00	990.691	0	0.000	0
20080310 20:40	10.6	10.6	10.6	40	-2.4	3	6	180	0.00	990.691	0	0.000	0
20080310 20:45	10.6	10.6	10.6	40	-2.4	2	11	180	0.00	990.792	0	0.000	0
20080310 20:50	10.6	10.6	10.6	40	-2.5	3	8	202	0.00	990.826	0	0.000	0
20080310 20:55	10.6	10.6	10.6	40	-2.5	5	19	180	0.00	990.962	0	0.000	0
20080310 21:00	10.6	10.6	10.6	40	-2.5	5	16	202	0.00	991.063	0	0.040	0
20080310 21:05	10.4	10.4	10.4	41	-2.2	3	14	202	0.00	990.759	0	0.000	0
20080310 21:10	10.3	10.3	10.3	41	-2.3	5	14	202	0.00	990.826	0	0.000	0
20080310 21:15	10.3	10.3	10.3	41	-2.4	3	11	202	0.00	990.928	0	0.000	0
20080310 21:20	10.2	10.2	10.2	42	-2.2	2	6	180	0.00	991.131	0	0.000	0
20080310 21:25	10.0	10.0	10.0	43	-2.0	2	6	202	0.00	991.233	0	0.000	0
20080310 21:30	9.8	9.8	9.8	45	-1.6	3	10	292	0.00	991.436	0	0.000	0
20080310 21:35	9.3	8.2	9.3	46	-1.7	8	19	270	0.00	991.639	0	0.000	0
20080310 21:40	9.2	8.1	9.2	44	-2.4	8	16	247	0.00	991.944	0	0.000	0
20080310 21:45	9.3	9.3	9.3	44	-2.3	5	8	247	0.00	991.978	0	0.000	0
20080310 21:50	9.3	9.3	9.3	43	-2.6	3	10	247	0.00	992.045	0	0.000	0
20080310 21:55	9.3	9.3	9.3	43	-2.7	2	5	225	0.00	992.113	0	0.000	0
20080310 22:00	9.2	9.2	9.2	44	-2.4	3	6	247	0.00	992.147	0	0.040	0
20080310 22:05	9.2	9.2	9.2	45	-2.1	3	8	247	0.00	991.910	0	0.000	0
20080310 22:10	9.2	9.2	9.2	46	-1.8	3	10	247	0.00	991.944	0	0.000	0
20080310 22:15	9.2	9.2	9.2	47	-1.5	3	6	247	0.00	991.944	0	0.000	0
20080310 22:20	9.2	9.2	9.2	48	-1.3	2	8	225	0.00	991.944	0	0.000	0
20080310 22:25	9.2	9.2	9.2	49	-1.0	2	6	225	0.00	992.012	0	0.000	0
20080310 22:30	9.2	9.2	9.2	50	-0.7	2	6	225	0.00	992.147	0	0.000	0
20080310 22:35	9.1	9.1	9.1	51	-0.5	3	8	247	0.00	992.316	0	0.000	0
20080310 22:40	9.0	9.0	9.0	53	-0.1	3	8	247	0.00	992.350	0	0.000	0
20080310 22:45	8.9	8.9	8.9	53	-0.1	5	14	247	0.00	992.553	0	0.000	0
20080310 22:50	9.0	7.8	9.0	54	0.2	8	14	247	0.00	992.587	0	0.000	0
20080310 22:55	9.0	8.2	9.0	54	0.2	6	14	247	0.00	992.621	0	0.000	0
20080310 23:00	8.9	7.8	8.9	55	0.4	8	16	247	0.00	992.689	0	0.040	0
20080310 23:05	8.9	7.7	8.9	56	0.6	8	16	247	0.00	992.621	0	0.000	0
20080310 23:10	8.8	7.6	8.8	57	0.8	8	18	247	0.00	992.621	0	0.000	0
20080310 23:15	8.8	8.0	8.8	57	0.7	6	16	247	0.00	992.756	0	0.000	0
20080310 23:20	8.7	7.4	8.7	58	0.9	8	16	270	0.00	992.824	0	0.000	0
20080310 23:25	8.5	7.2	8.5	59	0.9	8	14	270	0.00	993.027	0	0.000	0
20080310 23:30	8.4	6.8	8.4	60	1.1	10	18	270	0.00	993.163	0	0.000	0
20080310 23:35	8.3	6.7	8.3	61	1.2	10	18	270	0.00	993.231	0	0.000	0
20080310 23:40	8.2	6.2	8.2	62	1.3	11	18	270	0.00	993.298	0	0.000	0
20080310 23:45	8.1	5.8	8.1	64	1.7	13	23	270	0.00	993.434	0	0.000	0
20080310 23:50	7.8	4.3	7.8	67	2.0	23	34	315	0.00	993.434	0	0.000	0
20080310 23:55	7.5	4.3	7.5	69	2.2	19	34	292	0.00	993.434	0	0.000	0
20080310 24:00	7.3	4.2	7.3	70	2.2	18	31	292	0.00	993.705	0	0.040	0



Please note the license to use and transfer of this data:
http://creativecommons.org/licenses/by-nc-sa/3.0/deed.en

Bitte beachten sie die Lizenz zur Verwertung und Weitergabe der Daten:
http://creativecommons.org/licenses/by-nc-sa/3.0/deed.de

zurück zur Übersicht der Archivdaten (Monats und Tagesdaten)

Cookies helfen bei der Bereitstellung von Inhalten. Durch die Nutzung dieser Seiten erklärst du dich damit einverstanden, dass Cookies auf deinem Rechner gespeichert werden. Weitere Information